sensor_id;sensor_type;location;lat;lon;timestamp;temperature;humidity
1956;DHT22;978;48.314;11.562;2024-01-30T00:00:32;20.80;89.20
1956;DHT22;978;48.314;11.562;2024-01-30T00:02:59;20.40;90.10
1956;DHT22;978;48.314;11.562;2024-01-30T00:05:25;20.40;89.90
1956;DHT22;978;48.314;11.562;2024-01-30T00:07:54;20.40;89.30
1956;DHT22;978;48.314;11.562;2024-01-30T00:10:20;20.50;90.50
1956;DHT22;978;48.314;11.562;2024-01-30T00:12:47;20.40;89.80
1956;DHT22;978;48.314;11.562;2024-01-30T00:15:14;20.40;90.40
1956;DHT22;978;48.314;11.562;2024-01-30T00:17:40;20.40;89.10
1956;DHT22;978;48.314;11.562;2024-01-30T00:20:08;20.30;89.80
1956;DHT22;978;48.314;11.562;2024-01-30T00:22:35;20.40;87.30
1956;DHT22;978;48.314;11.562;2024-01-30T00:25:03;20.40;89.20
1956;DHT22;978;48.314;11.562;2024-01-30T00:27:30;20.40;88.00
1956;DHT22;978;48.314;11.562;2024-01-30T00:29:57;20.40;86.80
1956;DHT22;978;48.314;11.562;2024-01-30T00:32:23;20.40;86.70
1956;DHT22;978;48.314;11.562;2024-01-30T00:34:50;20.30;86.00
1956;DHT22;978;48.314;11.562;2024-01-30T00:37:17;20.40;86.60
1956;DHT22;978;48.314;11.562;2024-01-30T00:39:44;20.40;86.70
1956;DHT22;978;48.314;11.562;2024-01-30T00:42:12;20.40;86.40
1956;DHT22;978;48.314;11.562;2024-01-30T00:44:38;20.40;86.40
1956;DHT22;978;48.314;11.562;2024-01-30T00:47:05;20.40;86.50
1956;DHT22;978;48.314;11.562;2024-01-30T00:49:32;20.30;87.40
1956;DHT22;978;48.314;11.562;2024-01-30T00:51:59;20.40;89.70
1956;DHT22;978;48.314;11.562;2024-01-30T00:54:26;20.60;90.00
1956;DHT22;978;48.314;11.562;2024-01-30T00:56:53;20.40;89.30
1956;DHT22;978;48.314;11.562;2024-01-30T00:59:21;20.40;90.00
1956;DHT22;978;48.314;11.562;2024-01-30T01:01:47;20.40;87.40
1956;DHT22;978;48.314;11.562;2024-01-30T01:04:14;20.40;87.80
1956;DHT22;978;48.314;11.562;2024-01-30T01:06:41;20.40;90.00
1956;DHT22;978;48.314;11.562;2024-01-30T01:09:10;20.40;90.00
1956;DHT22;978;48.314;11.562;2024-01-30T01:11:36;20.50;85.40
1956;DHT22;978;48.314;11.562;2024-01-30T01:14:03;20.10;84.80
1956;DHT22;978;48.314;11.562;2024-01-30T01:16:32;20.60;84.80
1956;DHT22;978;48.314;11.562;2024-01-30T01:18:59;20.40;86.30
1956;DHT22;978;48.314;11.562;2024-01-30T01:21:26;20.30;84.70
1956;DHT22;978;48.314;11.562;2024-01-30T01:23:53;20.40;84.70
1956;DHT22;978;48.314;11.562;2024-01-30T01:26:19;20.40;87.10
1956;DHT22;978;48.314;11.562;2024-01-30T01:28:46;20.40;87.20
1956;DHT22;978;48.314;11.562;2024-01-30T01:31:13;20.40;84.80
1956;DHT22;978;48.314;11.562;2024-01-30T01:33:41;20.10;87.00
1956;DHT22;978;48.314;11.562;2024-01-30T01:36:08;20.50;87.10
1956;DHT22;978;48.314;11.562;2024-01-30T01:38:35;20.40;84.10
1956;DHT22;978;48.314;11.562;2024-01-30T01:41:02;20.30;83.10
1956;DHT22;978;48.314;11.562;2024-01-30T01:43:29;20.40;83.80
1956;DHT22;978;48.314;11.562;2024-01-30T01:45:56;20.40;83.80
1956;DHT22;978;48.314;11.562;2024-01-30T01:48:22;20.40;86.20
1956;DHT22;978;48.314;11.562;2024-01-30T01:50:51;20.40;87.00
1956;DHT22;978;48.314;11.562;2024-01-30T01:53:18;20.40;84.00
1956;DHT22;978;48.314;11.562;2024-01-30T01:55:46;20.50;84.10
1956;DHT22;978;48.314;11.562;2024-01-30T01:58:13;20.50;83.90
1956;DHT22;978;48.314;11.562;2024-01-30T02:00:40;20.50;83.90
1956;DHT22;978;48.314;11.562;2024-01-30T02:03:10;20.50;84.00
1956;DHT22;978;48.314;11.562;2024-01-30T02:05:37;20.40;83.30
1956;DHT22;978;48.314;11.562;2024-01-30T02:08:06;20.50;83.10
1956;DHT22;978;48.314;11.562;2024-01-30T02:10:34;20.50;83.10
1956;DHT22;978;48.314;11.562;2024-01-30T02:13:00;20.30;83.10
1956;DHT22;978;48.314;11.562;2024-01-30T02:15:28;20.60;83.20
1956;DHT22;978;48.314;11.562;2024-01-30T02:17:55;20.40;82.90
1956;DHT22;978;48.314;11.562;2024-01-30T02:20:24;20.40;83.00
1956;DHT22;978;48.314;11.562;2024-01-30T02:22:52;20.40;82.80
1956;DHT22;978;48.314;11.562;2024-01-30T02:25:20;20.40;82.80
1956;DHT22;978;48.314;11.562;2024-01-30T02:27:56;20.40;82.80
1956;DHT22;978;48.314;11.562;2024-01-30T02:30:23;20.40;82.90
1956;DHT22;978;48.314;11.562;2024-01-30T02:32:49;20.30;83.10
1956;DHT22;978;48.314;11.562;2024-01-30T02:35:16;20.30;81.80
1956;DHT22;978;48.314;11.562;2024-01-30T02:37:43;20.40;82.60
1956;DHT22;978;48.314;11.562;2024-01-30T02:40:11;20.40;82.60
1956;DHT22;978;48.314;11.562;2024-01-30T02:42:38;20.40;82.50
1956;DHT22;978;48.314;11.562;2024-01-30T02:45:06;20.50;82.50
1956;DHT22;978;48.314;11.562;2024-01-30T02:47:33;20.40;82.50
1956;DHT22;978;48.314;11.562;2024-01-30T02:49:59;20.40;82.50
1956;DHT22;978;48.314;11.562;2024-01-30T02:52:26;20.40;82.70
1956;DHT22;978;48.314;11.562;2024-01-30T02:54:53;20.60;82.90
1956;DHT22;978;48.314;11.562;2024-01-30T02:57:21;20.50;83.10
1956;DHT22;978;48.314;11.562;2024-01-30T02:59:48;20.40;82.50
1956;DHT22;978;48.314;11.562;2024-01-30T03:02:14;20.30;82.40
1956;DHT22;978;48.314;11.562;2024-01-30T03:04:41;20.40;82.40
1956;DHT22;978;48.314;11.562;2024-01-30T03:07:08;20.30;82.30
1956;DHT22;978;48.314;11.562;2024-01-30T03:12:02;20.50;82.40
1956;DHT22;978;48.314;11.562;2024-01-30T03:14:31;20.40;82.30
1956;DHT22;978;48.314;11.562;2024-01-30T03:16:58;20.30;82.30
1956;DHT22;978;48.314;11.562;2024-01-30T03:19:25;20.30;81.60
1956;DHT22;978;48.314;11.562;2024-01-30T03:21:52;20.30;81.60
1956;DHT22;978;48.314;11.562;2024-01-30T03:24:19;20.40;82.40
1956;DHT22;978;48.314;11.562;2024-01-30T03:26:46;20.40;82.90
1956;DHT22;978;48.314;11.562;2024-01-30T03:29:13;20.40;83.10
1956;DHT22;978;48.314;11.562;2024-01-30T03:31:41;20.70;85.50
1956;DHT22;978;48.314;11.562;2024-01-30T03:34:07;20.40;85.30
1956;DHT22;978;48.314;11.562;2024-01-30T03:36:34;20.50;83.80
1956;DHT22;978;48.314;11.562;2024-01-30T03:39:01;20.00;85.10
1956;DHT22;978;48.314;11.562;2024-01-30T03:41:28;20.40;82.90
1956;DHT22;978;48.314;11.562;2024-01-30T03:43:54;20.40;86.90
1956;DHT22;978;48.314;11.562;2024-01-30T03:46:21;20.40;84.30
1956;DHT22;978;48.314;11.562;2024-01-30T03:48:49;20.40;84.50
1956;DHT22;978;48.314;11.562;2024-01-30T03:51:16;20.10;83.80
1956;DHT22;978;48.314;11.562;2024-01-30T03:53:43;20.40;82.30
1956;DHT22;978;48.314;11.562;2024-01-30T03:56:11;20.40;82.20
1956;DHT22;978;48.314;11.562;2024-01-30T03:58:38;20.60;84.20
1956;DHT22;978;48.314;11.562;2024-01-30T04:01:05;20.40;82.10
1956;DHT22;978;48.314;11.562;2024-01-30T04:03:31;20.40;82.20
1956;DHT22;978;48.314;11.562;2024-01-30T04:06:00;20.30;84.50
1956;DHT22;978;48.314;11.562;2024-01-30T04:08:26;20.00;84.00
1956;DHT22;978;48.314;11.562;2024-01-30T04:10:53;20.40;82.60
1956;DHT22;978;48.314;11.562;2024-01-30T04:13:20;20.40;82.40
1956;DHT22;978;48.314;11.562;2024-01-30T04:15:46;20.30;82.30
1956;DHT22;978;48.314;11.562;2024-01-30T04:18:13;20.30;81.60
1956;DHT22;978;48.314;11.562;2024-01-30T04:20:40;20.40;84.50
1956;DHT22;978;48.314;11.562;2024-01-30T04:23:08;20.10;85.40
1956;DHT22;978;48.314;11.562;2024-01-30T04:25:35;20.70;85.20
1956;DHT22;978;48.314;11.562;2024-01-30T04:28:01;20.70;85.00
1956;DHT22;978;48.314;11.562;2024-01-30T04:30:28;20.30;83.20
1956;DHT22;978;48.314;11.562;2024-01-30T04:32:55;20.30;83.10
1956;DHT22;978;48.314;11.562;2024-01-30T04:35:22;20.40;82.80
1956;DHT22;978;48.314;11.562;2024-01-30T04:37:52;20.40;84.70
1956;DHT22;978;48.314;11.562;2024-01-30T04:40:21;20.30;81.90
1956;DHT22;978;48.314;11.562;2024-01-30T04:42:47;20.40;85.70
1956;DHT22;978;48.314;11.562;2024-01-30T04:45:14;20.40;83.80
1956;DHT22;978;48.314;11.562;2024-01-30T04:47:41;20.40;82.40
1956;DHT22;978;48.314;11.562;2024-01-30T04:50:09;20.50;82.50
1956;DHT22;978;48.314;11.562;2024-01-30T04:52:35;20.40;82.20
1956;DHT22;978;48.314;11.562;2024-01-30T04:55:06;20.40;82.30
1956;DHT22;978;48.314;11.562;2024-01-30T04:57:34;20.40;82.30
1956;DHT22;978;48.314;11.562;2024-01-30T05:00:01;20.60;82.60
1956;DHT22;978;48.314;11.562;2024-01-30T05:02:27;20.40;82.50
1956;DHT22;978;48.314;11.562;2024-01-30T05:04:54;20.40;82.40
1956;DHT22;978;48.314;11.562;2024-01-30T05:07:21;20.50;84.70
1956;DHT22;978;48.314;11.562;2024-01-30T05:09:47;20.40;82.70
1956;DHT22;978;48.314;11.562;2024-01-30T05:12:14;20.30;81.50
1956;DHT22;978;48.314;11.562;2024-01-30T05:14:42;20.40;82.60
1956;DHT22;978;48.314;11.562;2024-01-30T05:17:09;20.40;82.90
1956;DHT22;978;48.314;11.562;2024-01-30T05:19:38;20.30;84.90
1956;DHT22;978;48.314;11.562;2024-01-30T05:22:05;20.00;83.30
1956;DHT22;978;48.314;11.562;2024-01-30T05:24:31;20.30;82.60
1956;DHT22;978;48.314;11.562;2024-01-30T05:26:58;20.20;83.10
1956;DHT22;978;48.314;11.562;2024-01-30T05:29:25;20.40;84.80
1956;DHT22;978;48.314;11.562;2024-01-30T05:31:53;20.80;82.60
1956;DHT22;978;48.314;11.562;2024-01-30T05:34:20;20.30;81.10
1956;DHT22;978;48.314;11.562;2024-01-30T05:36:46;20.40;82.40
1956;DHT22;978;48.314;11.562;2024-01-30T05:39:13;20.70;82.20
1956;DHT22;978;48.314;11.562;2024-01-30T05:41:40;20.40;82.20
1956;DHT22;978;48.314;11.562;2024-01-30T05:44:07;20.80;83.10
1956;DHT22;978;48.314;11.562;2024-01-30T05:46:35;20.30;82.70
1956;DHT22;978;48.314;11.562;2024-01-30T05:49:03;20.40;81.70
1956;DHT22;978;48.314;11.562;2024-01-30T05:51:30;20.40;81.90
1956;DHT22;978;48.314;11.562;2024-01-30T05:53:56;20.50;82.20
1956;DHT22;978;48.314;11.562;2024-01-30T05:56:23;20.40;82.00
1956;DHT22;978;48.314;11.562;2024-01-30T05:58:50;20.30;82.00
1956;DHT22;978;48.314;11.562;2024-01-30T06:01:17;20.50;82.00
1956;DHT22;978;48.314;11.562;2024-01-30T06:03:43;20.80;82.90
1956;DHT22;978;48.314;11.562;2024-01-30T06:06:11;20.30;83.90
1956;DHT22;978;48.314;11.562;2024-01-30T06:08:38;20.40;83.00
1956;DHT22;978;48.314;11.562;2024-01-30T06:11:05;20.70;82.90
1956;DHT22;978;48.314;11.562;2024-01-30T06:13:32;21.10;82.80
1956;DHT22;978;48.314;11.562;2024-01-30T06:15:59;20.50;82.60
1956;DHT22;978;48.314;11.562;2024-01-30T06:18:26;20.60;84.40
1956;DHT22;978;48.314;11.562;2024-01-30T06:20:54;20.60;82.60
1956;DHT22;978;48.314;11.562;2024-01-30T06:23:28;20.30;81.40
1956;DHT22;978;48.314;11.562;2024-01-30T06:25:55;20.40;82.50
1956;DHT22;978;48.314;11.562;2024-01-30T06:28:22;20.70;82.20
1956;DHT22;978;48.314;11.562;2024-01-30T06:30:48;20.40;83.80
1956;DHT22;978;48.314;11.562;2024-01-30T06:33:15;20.50;81.50
1956;DHT22;978;48.314;11.562;2024-01-30T06:35:42;20.50;81.60
1956;DHT22;978;48.314;11.562;2024-01-30T06:38:11;20.40;81.50
1956;DHT22;978;48.314;11.562;2024-01-30T06:40:40;20.40;81.90
1956;DHT22;978;48.314;11.562;2024-01-30T06:43:07;20.40;81.40
1956;DHT22;978;48.314;11.562;2024-01-30T06:45:34;20.50;81.50
1956;DHT22;978;48.314;11.562;2024-01-30T06:48:01;20.40;81.40
1956;DHT22;978;48.314;11.562;2024-01-30T06:50:27;20.50;81.60
1956;DHT22;978;48.314;11.562;2024-01-30T06:52:54;19.60;80.10
1956;DHT22;978;48.314;11.562;2024-01-30T06:55:21;20.40;81.50
1956;DHT22;978;48.314;11.562;2024-01-30T06:57:49;20.50;81.60
1956;DHT22;978;48.314;11.562;2024-01-30T07:00:16;20.40;81.70
1956;DHT22;978;48.314;11.562;2024-01-30T07:02:45;20.40;81.20
1956;DHT22;978;48.314;11.562;2024-01-30T07:05:11;20.60;81.60
1956;DHT22;978;48.314;11.562;2024-01-30T07:07:38;20.40;82.10
1956;DHT22;978;48.314;11.562;2024-01-30T07:10:06;20.40;81.90
1956;DHT22;978;48.314;11.562;2024-01-30T07:12:33;20.40;81.40
1956;DHT22;978;48.314;11.562;2024-01-30T07:15:01;20.40;82.10
1956;DHT22;978;48.314;11.562;2024-01-30T07:17:29;20.40;84.50
1956;DHT22;978;48.314;11.562;2024-01-30T07:19:56;20.70;82.00
1956;DHT22;978;48.314;11.562;2024-01-30T07:22:22;20.30;80.60
1956;DHT22;978;48.314;11.562;2024-01-30T07:24:49;20.80;81.70
1956;DHT22;978;48.314;11.562;2024-01-30T07:27:17;20.30;81.20
1956;DHT22;978;48.314;11.562;2024-01-30T07:29:44;19.50;81.20
1956;DHT22;978;48.314;11.562;2024-01-30T07:32:12;20.40;81.30
1956;DHT22;978;48.314;11.562;2024-01-30T07:34:39;20.30;81.30
1956;DHT22;978;48.314;11.562;2024-01-30T07:37:05;20.40;81.30
1956;DHT22;978;48.314;11.562;2024-01-30T07:39:33;20.30;80.70
1956;DHT22;978;48.314;11.562;2024-01-30T07:42:00;20.50;81.50
1956;DHT22;978;48.314;11.562;2024-01-30T07:44:27;20.40;81.30
1956;DHT22;978;48.314;11.562;2024-01-30T07:46:54;20.40;81.20
1956;DHT22;978;48.314;11.562;2024-01-30T07:49:22;20.40;81.50
1956;DHT22;978;48.314;11.562;2024-01-30T07:51:49;20.40;81.30
1956;DHT22;978;48.314;11.562;2024-01-30T07:54:16;20.40;81.30
1956;DHT22;978;48.314;11.562;2024-01-30T07:56:43;20.50;81.20
1956;DHT22;978;48.314;11.562;2024-01-30T07:59:10;20.50;81.30
1956;DHT22;978;48.314;11.562;2024-01-30T08:01:36;20.60;81.70
1956;DHT22;978;48.314;11.562;2024-01-30T08:04:03;20.40;81.70
1956;DHT22;978;48.314;11.562;2024-01-30T08:06:32;20.40;81.20
1956;DHT22;978;48.314;11.562;2024-01-30T08:08:59;20.30;81.20
1956;DHT22;978;48.314;11.562;2024-01-30T08:11:25;20.50;81.40
1956;DHT22;978;48.314;11.562;2024-01-30T08:13:54;20.40;81.20
1956;DHT22;978;48.314;11.562;2024-01-30T08:16:21;20.30;81.10
1956;DHT22;978;48.314;11.562;2024-01-30T08:18:47;20.50;81.30
1956;DHT22;978;48.314;11.562;2024-01-30T08:21:14;20.30;81.50
1956;DHT22;978;48.314;11.562;2024-01-30T08:23:42;20.40;81.40
1956;DHT22;978;48.314;11.562;2024-01-30T08:26:09;20.50;81.20
1956;DHT22;978;48.314;11.562;2024-01-30T08:28:36;20.40;81.30
1956;DHT22;978;48.314;11.562;2024-01-30T08:31:03;20.40;81.30
1956;DHT22;978;48.314;11.562;2024-01-30T08:33:29;20.40;81.30
1956;DHT22;978;48.314;11.562;2024-01-30T08:35:56;20.50;81.30
1956;DHT22;978;48.314;11.562;2024-01-30T08:38:23;20.40;81.20
1956;DHT22;978;48.314;11.562;2024-01-30T08:40:51;20.40;81.10
1956;DHT22;978;48.314;11.562;2024-01-30T08:43:18;20.70;81.50
1956;DHT22;978;48.314;11.562;2024-01-30T08:45:44;20.40;81.30
1956;DHT22;978;48.314;11.562;2024-01-30T08:48:11;20.40;81.30
1956;DHT22;978;48.314;11.562;2024-01-30T08:50:38;20.30;81.10
1956;DHT22;978;48.314;11.562;2024-01-30T08:53:05;20.40;81.20
1956;DHT22;978;48.314;11.562;2024-01-30T08:55:32;20.30;81.20
1956;DHT22;978;48.314;11.562;2024-01-30T08:58:00;20.80;82.00
1956;DHT22;978;48.314;11.562;2024-01-30T09:00:30;20.40;81.40
1956;DHT22;978;48.314;11.562;2024-01-30T09:02:57;20.80;81.50
1956;DHT22;978;48.314;11.562;2024-01-30T09:05:23;20.40;81.20
1956;DHT22;978;48.314;11.562;2024-01-30T09:07:50;20.40;81.50
1956;DHT22;978;48.314;11.562;2024-01-30T09:10:17;20.50;81.50
1956;DHT22;978;48.314;11.562;2024-01-30T09:12:44;20.40;81.20
1956;DHT22;978;48.314;11.562;2024-01-30T09:15:12;20.30;81.20
1956;DHT22;978;48.314;11.562;2024-01-30T09:17:39;20.50;81.40
1956;DHT22;978;48.314;11.562;2024-01-30T09:20:07;20.50;81.30
1956;DHT22;978;48.314;11.562;2024-01-30T09:22:34;20.30;81.60
1956;DHT22;978;48.314;11.562;2024-01-30T09:25:01;20.50;81.30
1956;DHT22;978;48.314;11.562;2024-01-30T09:27:28;20.40;81.30
1956;DHT22;978;48.314;11.562;2024-01-30T09:29:55;20.30;80.50
1956;DHT22;978;48.314;11.562;2024-01-30T09:32:23;20.30;81.20
1956;DHT22;978;48.314;11.562;2024-01-30T09:34:49;20.50;81.30
1956;DHT22;978;48.314;11.562;2024-01-30T09:37:16;20.30;81.30
1956;DHT22;978;48.314;11.562;2024-01-30T09:39:44;20.40;81.30
1956;DHT22;978;48.314;11.562;2024-01-30T09:42:20;20.30;80.50
1956;DHT22;978;48.314;11.562;2024-01-30T09:44:51;20.40;81.20
1956;DHT22;978;48.314;11.562;2024-01-30T09:47:18;20.50;81.40
1956;DHT22;978;48.314;11.562;2024-01-30T09:49:46;20.40;81.30
1956;DHT22;978;48.314;11.562;2024-01-30T09:52:13;20.30;81.30
1956;DHT22;978;48.314;11.562;2024-01-30T09:54:41;20.30;80.50
1956;DHT22;978;48.314;11.562;2024-01-30T09:57:08;20.40;81.20
1956;DHT22;978;48.314;11.562;2024-01-30T09:59:35;20.40;81.60
1956;DHT22;978;48.314;11.562;2024-01-30T10:02:02;20.60;81.60
1956;DHT22;978;48.314;11.562;2024-01-30T10:04:29;20.30;81.30
1956;DHT22;978;48.314;11.562;2024-01-30T10:06:57;20.60;81.50
1956;DHT22;978;48.314;11.562;2024-01-30T10:09:26;20.20;81.20
1956;DHT22;978;48.314;11.562;2024-01-30T10:11:53;20.70;81.60
1956;DHT22;978;48.314;11.562;2024-01-30T10:14:20;20.50;81.50
1956;DHT22;978;48.314;11.562;2024-01-30T10:16:47;20.50;81.80
1956;DHT22;978;48.314;11.562;2024-01-30T10:19:14;20.40;81.40
1956;DHT22;978;48.314;11.562;2024-01-30T10:21:40;20.30;81.30
1956;DHT22;978;48.314;11.562;2024-01-30T10:24:10;20.40;81.40
1956;DHT22;978;48.314;11.562;2024-01-30T10:26:38;20.40;81.40
1956;DHT22;978;48.314;11.562;2024-01-30T10:29:05;20.40;81.40
1956;DHT22;978;48.314;11.562;2024-01-30T10:31:31;20.40;81.40
1956;DHT22;978;48.314;11.562;2024-01-30T10:33:58;20.40;81.50
1956;DHT22;978;48.314;11.562;2024-01-30T10:36:28;20.40;81.60
1956;DHT22;978;48.314;11.562;2024-01-30T10:38:59;20.50;81.40
1956;DHT22;978;48.314;11.562;2024-01-30T10:41:27;20.30;81.20
1956;DHT22;978;48.314;11.562;2024-01-30T10:44:02;20.40;81.30
1956;DHT22;978;48.314;11.562;2024-01-30T10:46:32;20.40;81.50
1956;DHT22;978;48.314;11.562;2024-01-30T10:49:00;20.40;81.50
1956;DHT22;978;48.314;11.562;2024-01-30T10:51:28;20.40;81.50
1956;DHT22;978;48.314;11.562;2024-01-30T10:53:56;20.30;81.40
1956;DHT22;978;48.314;11.562;2024-01-30T10:56:22;20.50;81.40
1956;DHT22;978;48.314;11.562;2024-01-30T10:58:52;20.40;81.70
1956;DHT22;978;48.314;11.562;2024-01-30T11:01:19;20.40;81.40
1956;DHT22;978;48.314;11.562;2024-01-30T11:03:49;20.40;81.10
1956;DHT22;978;48.314;11.562;2024-01-30T11:06:16;20.60;81.60
1956;DHT22;978;48.314;11.562;2024-01-30T11:08:45;20.30;81.50
1956;DHT22;978;48.314;11.562;2024-01-30T11:11:12;20.40;81.40
1956;DHT22;978;48.314;11.562;2024-01-30T11:13:40;20.30;81.50
1956;DHT22;978;48.314;11.562;2024-01-30T11:16:11;20.40;81.50
1956;DHT22;978;48.314;11.562;2024-01-30T11:18:38;20.40;81.40
1956;DHT22;978;48.314;11.562;2024-01-30T11:21:05;20.60;81.50
1956;DHT22;978;48.314;11.562;2024-01-30T11:23:33;20.40;81.80
1956;DHT22;978;48.314;11.562;2024-01-30T11:26:00;20.40;81.30
1956;DHT22;978;48.314;11.562;2024-01-30T11:28:32;20.40;81.50
1956;DHT22;978;48.314;11.562;2024-01-30T11:31:03;20.40;81.30
1956;DHT22;978;48.314;11.562;2024-01-30T11:33:31;20.30;81.30
1956;DHT22;978;48.314;11.562;2024-01-30T11:36:00;20.30;81.50
1956;DHT22;978;48.314;11.562;2024-01-30T11:38:27;20.50;81.40
1956;DHT22;978;48.314;11.562;2024-01-30T11:40:55;20.40;81.50
1956;DHT22;978;48.314;11.562;2024-01-30T11:43:22;20.40;81.50
1956;DHT22;978;48.314;11.562;2024-01-30T11:45:50;20.30;81.40
1956;DHT22;978;48.314;11.562;2024-01-30T11:48:17;20.30;81.60
1956;DHT22;978;48.314;11.562;2024-01-30T11:50:45;20.40;81.50
1956;DHT22;978;48.314;11.562;2024-01-30T11:53:12;20.40;81.30
1956;DHT22;978;48.314;11.562;2024-01-30T11:55:39;20.50;81.60
1956;DHT22;978;48.314;11.562;2024-01-30T11:58:06;20.40;81.50
1956;DHT22;978;48.314;11.562;2024-01-30T12:00:33;20.40;81.50
1956;DHT22;978;48.314;11.562;2024-01-30T12:03:00;20.40;81.40
1956;DHT22;978;48.314;11.562;2024-01-30T12:05:28;20.40;81.50
1956;DHT22;978;48.314;11.562;2024-01-30T12:07:56;20.40;81.80
1956;DHT22;978;48.314;11.562;2024-01-30T12:10:24;20.40;81.90
1956;DHT22;978;48.314;11.562;2024-01-30T12:12:52;20.40;81.40
1956;DHT22;978;48.314;11.562;2024-01-30T12:15:22;20.50;81.40
1956;DHT22;978;48.314;11.562;2024-01-30T12:17:48;20.40;81.30
1956;DHT22;978;48.314;11.562;2024-01-30T12:20:18;20.50;81.60
1956;DHT22;978;48.314;11.562;2024-01-30T12:22:46;20.30;81.30
1956;DHT22;978;48.314;11.562;2024-01-30T12:25:16;20.50;81.50
1956;DHT22;978;48.314;11.562;2024-01-30T12:27:43;20.40;81.40
1956;DHT22;978;48.314;11.562;2024-01-30T12:30:12;20.60;81.60
1956;DHT22;978;48.314;11.562;2024-01-30T12:32:40;20.40;81.50
1956;DHT22;978;48.314;11.562;2024-01-30T12:35:08;20.40;81.40
1956;DHT22;978;48.314;11.562;2024-01-30T12:37:36;20.40;81.70
1956;DHT22;978;48.314;11.562;2024-01-30T12:40:03;20.30;81.50
1956;DHT22;978;48.314;11.562;2024-01-30T12:42:32;20.30;81.40
1956;DHT22;978;48.314;11.562;2024-01-30T12:44:59;20.30;81.70
1956;DHT22;978;48.314;11.562;2024-01-30T12:47:26;20.40;81.60
1956;DHT22;978;48.314;11.562;2024-01-30T12:49:53;20.40;82.30
1956;DHT22;978;48.314;11.562;2024-01-30T12:52:20;20.40;81.50
1956;DHT22;978;48.314;11.562;2024-01-30T12:54:47;20.40;81.50
1956;DHT22;978;48.314;11.562;2024-01-30T12:57:14;20.40;81.60
1956;DHT22;978;48.314;11.562;2024-01-30T12:59:43;20.40;81.60
1956;DHT22;978;48.314;11.562;2024-01-30T13:02:11;20.50;81.90
1956;DHT22;978;48.314;11.562;2024-01-30T13:04:38;20.50;81.70
1956;DHT22;978;48.314;11.562;2024-01-30T13:07:05;20.50;81.90
1956;DHT22;978;48.314;11.562;2024-01-30T13:09:32;20.70;81.90
1956;DHT22;978;48.314;11.562;2024-01-30T13:11:59;20.40;81.70
1956;DHT22;978;48.314;11.562;2024-01-30T13:14:26;20.30;81.50
1956;DHT22;978;48.314;11.562;2024-01-30T13:16:54;20.40;81.60
1956;DHT22;978;48.314;11.562;2024-01-30T13:19:21;20.30;81.80
1956;DHT22;978;48.314;11.562;2024-01-30T13:21:47;20.40;82.00
1956;DHT22;978;48.314;11.562;2024-01-30T13:24:14;20.50;81.70
1956;DHT22;978;48.314;11.562;2024-01-30T13:26:42;20.40;81.70
1956;DHT22;978;48.314;11.562;2024-01-30T13:29:09;20.50;81.70
1956;DHT22;978;48.314;11.562;2024-01-30T13:31:36;20.30;81.60
1956;DHT22;978;48.314;11.562;2024-01-30T13:34:04;20.20;81.50
1956;DHT22;978;48.314;11.562;2024-01-30T13:36:32;20.40;81.70
1956;DHT22;978;48.314;11.562;2024-01-30T13:38:59;20.40;81.80
1956;DHT22;978;48.314;11.562;2024-01-30T13:41:26;20.50;81.80
1956;DHT22;978;48.314;11.562;2024-01-30T13:43:54;20.40;81.80
1956;DHT22;978;48.314;11.562;2024-01-30T13:46:21;20.30;81.70
1956;DHT22;978;48.314;11.562;2024-01-30T13:48:48;20.40;81.80
1956;DHT22;978;48.314;11.562;2024-01-30T13:51:16;20.40;82.00
1956;DHT22;978;48.314;11.562;2024-01-30T13:53:43;20.30;81.60
1956;DHT22;978;48.314;11.562;2024-01-30T13:56:10;20.50;81.90
1956;DHT22;978;48.314;11.562;2024-01-30T13:58:37;20.40;81.80
1956;DHT22;978;48.314;11.562;2024-01-30T14:01:04;20.30;82.20
1956;DHT22;978;48.314;11.562;2024-01-30T14:03:31;20.40;81.80
1956;DHT22;978;48.314;11.562;2024-01-30T14:05:57;20.30;81.10
1956;DHT22;978;48.314;11.562;2024-01-30T14:08:28;20.50;81.90
1956;DHT22;978;48.314;11.562;2024-01-30T14:10:54;20.30;81.80
1956;DHT22;978;48.314;11.562;2024-01-30T14:13:21;20.40;81.80
1956;DHT22;978;48.314;11.562;2024-01-30T14:15:50;20.50;82.00
1956;DHT22;978;48.314;11.562;2024-01-30T14:18:17;20.40;82.00
1956;DHT22;978;48.314;11.562;2024-01-30T14:20:44;20.30;81.90
1956;DHT22;978;48.314;11.562;2024-01-30T14:23:10;20.30;81.80
1956;DHT22;978;48.314;11.562;2024-01-30T14:25:38;20.30;81.80
1956;DHT22;978;48.314;11.562;2024-01-30T14:28:06;20.40;81.90
1956;DHT22;978;48.314;11.562;2024-01-30T14:30:32;20.30;82.40
1956;DHT22;978;48.314;11.562;2024-01-30T14:32:59;20.40;81.90
1956;DHT22;978;48.314;11.562;2024-01-30T14:35:28;20.40;81.90
1956;DHT22;978;48.314;11.562;2024-01-30T14:37:55;20.40;82.00
1956;DHT22;978;48.314;11.562;2024-01-30T14:40:22;20.50;82.00
1956;DHT22;978;48.314;11.562;2024-01-30T14:42:50;20.40;82.00
1956;DHT22;978;48.314;11.562;2024-01-30T14:45:17;20.40;82.40
1956;DHT22;978;48.314;11.562;2024-01-30T14:47:47;20.40;82.00
1956;DHT22;978;48.314;11.562;2024-01-30T14:50:15;20.60;82.60
1956;DHT22;978;48.314;11.562;2024-01-30T14:52:43;20.40;82.10
1956;DHT22;978;48.314;11.562;2024-01-30T14:55:10;20.40;82.10
1956;DHT22;978;48.314;11.562;2024-01-30T14:57:37;20.40;81.90
1956;DHT22;978;48.314;11.562;2024-01-30T15:00:06;20.40;82.00
1956;DHT22;978;48.314;11.562;2024-01-30T15:02:34;20.30;81.80
1956;DHT22;978;48.314;11.562;2024-01-30T15:05:01;20.40;81.90
1956;DHT22;978;48.314;11.562;2024-01-30T15:07:28;20.40;81.80
1956;DHT22;978;48.314;11.562;2024-01-30T15:09:55;20.50;82.00
1956;DHT22;978;48.314;11.562;2024-01-30T15:12:21;20.30;81.20
1956;DHT22;978;48.314;11.562;2024-01-30T15:14:49;20.40;81.90
1956;DHT22;978;48.314;11.562;2024-01-30T15:17:18;20.40;81.80
1956;DHT22;978;48.314;11.562;2024-01-30T15:19:48;20.40;81.90
1956;DHT22;978;48.314;11.562;2024-01-30T15:22:17;20.30;81.80
1956;DHT22;978;48.314;11.562;2024-01-30T15:24:45;20.40;82.00
1956;DHT22;978;48.314;11.562;2024-01-30T15:27:12;20.40;82.00
1956;DHT22;978;48.314;11.562;2024-01-30T15:29:38;20.40;81.90
1956;DHT22;978;48.314;11.562;2024-01-30T15:32:06;20.50;82.40
1956;DHT22;978;48.314;11.562;2024-01-30T15:34:34;20.30;81.20
1956;DHT22;978;48.314;11.562;2024-01-30T15:37:01;20.40;82.00
1956;DHT22;978;48.314;11.562;2024-01-30T15:39:30;20.30;81.90
1956;DHT22;978;48.314;11.562;2024-01-30T15:41:59;20.40;82.00
1956;DHT22;978;48.314;11.562;2024-01-30T15:44:25;20.40;81.70
1956;DHT22;978;48.314;11.562;2024-01-30T15:46:53;20.50;82.00
1956;DHT22;978;48.314;11.562;2024-01-30T15:49:21;20.40;82.00
1956;DHT22;978;48.314;11.562;2024-01-30T15:51:50;20.40;82.00
1956;DHT22;978;48.314;11.562;2024-01-30T15:54:17;20.40;81.90
1956;DHT22;978;48.314;11.562;2024-01-30T15:56:44;20.40;82.00
1956;DHT22;978;48.314;11.562;2024-01-30T15:59:11;20.30;81.80
1956;DHT22;978;48.314;11.562;2024-01-30T16:01:38;20.30;81.80
1956;DHT22;978;48.314;11.562;2024-01-30T16:04:06;20.40;82.10